createdAt,value
2022-09-01T00:01:14.431Z,63.1
2022-09-01T00:02:30.577Z,63.2
2022-09-01T00:03:45.831Z,63.2
2022-09-01T00:05:02.019Z,63.1
2022-09-01T00:06:18.209Z,63.2
2022-09-01T00:07:34.349Z,63.2
2022-09-01T00:08:50.582Z,63.2
2022-09-01T00:10:06.743Z,63.3
2022-09-01T00:11:22.968Z,63.2
2022-09-01T00:12:39.158Z,63.2
2022-09-01T00:13:55.343Z,63.5
2022-09-01T00:15:11.499Z,63.6
2022-09-01T00:16:27.714Z,63.6
2022-09-01T00:17:43.858Z,63.4
2022-09-01T00:19:00.098Z,63.5
2022-09-01T00:20:15.306Z,63.7
2022-09-01T00:21:31.490Z,63.7
2022-09-01T00:22:47.649Z,63.6
2022-09-01T00:24:03.827Z,63.7
2022-09-01T00:25:20.008Z,63.7
2022-09-01T00:26:36.242Z,63.8
2022-09-01T00:27:52.389Z,63.7
2022-09-01T00:29:08.634Z,63.7
2022-09-01T00:30:24.766Z,63.7
2022-09-01T00:31:41.006Z,63.7
2022-09-01T00:32:57.159Z,63.6
2022-09-01T00:34:13.377Z,63.8
2022-09-01T00:35:29.573Z,63.8
2022-09-01T00:36:44.728Z,63.8
2022-09-01T00:38:00.930Z,63.8
2022-09-01T00:39:17.165Z,63.8
2022-09-01T00:40:33.300Z,63.8
2022-09-01T00:41:49.528Z,63.8
2022-09-01T00:43:05.721Z,63.8
2022-09-01T00:44:21.908Z,63.9
2022-09-01T00:45:38.050Z,63.9
2022-09-01T00:46:54.301Z,63.9
2022-09-01T00:48:10.437Z,63.9
2022-09-01T00:49:26.681Z,63.8
2022-09-01T00:50:42.866Z,63.9
2022-09-01T00:51:59.045Z,63.9
2022-09-01T00:53:14.214Z,63.9
2022-09-01T00:54:30.449Z,63.9
2022-09-01T00:55:46.631Z,63.9
2022-09-01T00:57:02.831Z,63.8
2022-09-01T00:58:18.959Z,63.8
2022-09-01T00:59:35.200Z,64
2022-09-01T01:00:51.344Z,63.9
2022-09-01T01:02:07.526Z,63.8
2022-09-01T01:03:23.724Z,64
2022-09-01T01:04:39.960Z,64
2022-09-01T01:05:56.143Z,63.9
2022-09-01T01:07:12.326Z,64
2022-09-01T01:08:28.478Z,64
2022-09-01T01:09:43.669Z,64.2
2022-09-01T01:10:59.877Z,64
2022-09-01T01:12:16.101Z,64
2022-09-01T01:13:32.288Z,64
2022-09-01T01:14:48.495Z,64
2022-09-01T01:16:04.630Z,64
2022-09-01T01:17:20.861Z,64
2022-09-01T01:18:37.047Z,64
2022-09-01T01:19:53.248Z,64.1
2022-09-01T01:21:09.436Z,64.1
2022-09-01T01:22:25.629Z,64.1
2022-09-01T01:23:41.819Z,64.1
2022-09-01T01:24:58.007Z,64
2022-09-01T01:26:13.147Z,64.2
2022-09-01T01:27:29.341Z,64.1
2022-09-01T01:28:45.582Z,64.2
2022-09-01T01:30:01.766Z,64.2
2022-09-01T01:31:17.907Z,64.2
2022-09-01T01:32:34.158Z,64.2
2022-09-01T01:33:49.311Z,64.3
2022-09-01T01:35:05.562Z,64.2
2022-09-01T01:36:21.000Z,64.2
2022-09-01T01:37:37.935Z,64.2
2022-09-01T01:38:54.119Z,64.2
2022-09-01T01:40:10.252Z,64.2
2022-09-01T01:41:26.447Z,64.3
2022-09-01T01:42:42.676Z,64.2
2022-09-01T01:43:58.876Z,64.3
2022-09-01T01:45:14.998Z,64.3
2022-09-01T01:46:31.204Z,64.3
2022-09-01T01:47:47.436Z,64.3
2022-09-01T01:49:03.563Z,64.3
2022-09-01T01:50:18.840Z,64.3
2022-09-01T01:51:35.031Z,64.3
2022-09-01T01:52:51.145Z,64.2
2022-09-01T01:54:07.352Z,64.3
2022-09-01T01:55:23.592Z,64.3
2022-09-01T01:56:39.728Z,64.3
2022-09-01T01:57:55.976Z,64.3
2022-09-01T01:59:12.151Z,64.3
2022-09-01T02:00:28.285Z,64.4
2022-09-01T02:01:44.533Z,64.4
2022-09-01T02:03:00.727Z,64.3
2022-09-01T02:04:16.844Z,64.4
2022-09-01T02:05:33.052Z,64.4
2022-09-01T02:06:48.303Z,64.4
2022-09-01T02:08:04.507Z,64.4
2022-09-01T02:09:20.632Z,64.4
2022-09-01T02:10:36.871Z,64.4
2022-09-01T02:11:52.995Z,64.4
2022-09-01T02:13:09.264Z,64.4
2022-09-01T02:14:25.451Z,64.4
2022-09-01T02:15:41.644Z,64.5
2022-09-01T02:16:57.834Z,64.4
2022-09-01T02:18:13.945Z,64.5
2022-09-01T02:19:30.203Z,64.5
2022-09-01T02:20:46.386Z,64.5
2022-09-01T02:22:02.575Z,64.4
2022-09-01T02:23:17.791Z,64.5
2022-09-01T02:24:33.902Z,64.4
2022-09-01T02:25:50.000Z,64.5
2022-09-01T02:27:06.285Z,64.5
2022-09-01T02:28:22.545Z,64.5
2022-09-01T02:29:38.723Z,64.5
2022-09-01T02:30:54.924Z,64.5
2022-09-01T02:32:11.051Z,64.5
2022-09-01T02:33:27.309Z,64.5
2022-09-01T02:34:43.409Z,64.5
2022-09-01T02:35:59.670Z,64.6
2022-09-01T02:37:15.873Z,64.6
2022-09-01T02:38:32.064Z,64.6
2022-09-01T02:39:47.199Z,64.6
2022-09-01T02:41:03.443Z,64.5
2022-09-01T02:42:19.571Z,64.6
2022-09-01T02:43:35.831Z,64.6
2022-09-01T02:44:52.012Z,64.7
2022-09-01T02:46:08.129Z,64.7
2022-09-01T02:47:24.325Z,64.7
2022-09-01T02:48:40.576Z,64.7
2022-09-01T02:49:56.767Z,64.7
2022-09-01T02:51:12.963Z,64.7
2022-09-01T02:52:29.145Z,64.8
2022-09-01T02:53:45.333Z,64.7
2022-09-01T02:55:01.521Z,64.7
2022-09-01T02:56:16.743Z,64.7
2022-09-01T02:57:32.856Z,64.7
2022-09-01T02:58:49.105Z,64.7
2022-09-01T03:00:05.310Z,64.7
2022-09-01T03:01:21.501Z,64.7
2022-09-01T03:02:37.596Z,64.7
2022-09-01T03:03:53.867Z,64.7
2022-09-01T03:05:09.981Z,64.7
2022-09-01T03:06:26.240Z,64.8
2022-09-01T03:07:42.366Z,64.8
2022-09-01T03:08:58.553Z,64.7
2022-09-01T03:10:14.747Z,64.8
2022-09-01T03:11:31.013Z,64.8
2022-09-01T03:12:46.217Z,64.8
2022-09-01T03:14:02.392Z,64.7
2022-09-01T03:15:18.581Z,64.8
2022-09-01T03:16:34.780Z,64.8
2022-09-01T03:17:50.884Z,64.8
2022-09-01T03:19:07.160Z,64.9
2022-09-01T03:20:23.339Z,64.9
2022-09-01T03:21:39.523Z,64.8
2022-09-01T03:22:55.721Z,64.9
2022-09-01T03:24:11.905Z,64.9
2022-09-01T03:25:28.024Z,64.9
2022-09-01T03:26:44.286Z,64.9
2022-09-01T03:28:00.402Z,64.9
2022-09-01T03:29:15.684Z,65
2022-09-01T03:30:31.865Z,65
2022-09-01T03:31:48.071Z,65.1
2022-09-01T03:33:04.253Z,65
2022-09-01T03:34:20.443Z,65
2022-09-01T03:35:36.544Z,65
2022-09-01T03:36:52.809Z,65.1
2022-09-01T03:38:09.003Z,65.1
2022-09-01T03:39:25.116Z,65.1
2022-09-01T03:40:41.388Z,65
2022-09-01T03:41:57.578Z,65
2022-09-01T03:43:13.680Z,65.1
2022-09-01T03:44:29.960Z,65.1
2022-09-01T03:45:45.072Z,65.1
2022-09-01T03:47:01.354Z,65.1
2022-09-01T03:48:17.461Z,65.1
2022-09-01T03:49:33.734Z,65.1
2022-09-01T03:50:49.912Z,65.2
2022-09-01T03:52:06.100Z,65.2
2022-09-01T03:53:22.289Z,65.2
2022-09-01T03:54:38.471Z,65.2
2022-09-01T03:55:54.586Z,65.1
2022-09-01T03:57:10.850Z,65.2
2022-09-01T03:58:26.962Z,65.2
2022-09-01T03:59:43.153Z,65.2
2022-09-01T04:00:59.437Z,65.2
2022-09-01T04:02:14.624Z,65.3
2022-09-01T04:03:30.744Z,65.3
2022-09-01T04:04:47.008Z,65.3
2022-09-01T04:06:03.120Z,65.3
2022-09-01T04:07:19.385Z,65.3
2022-09-01T04:08:35.497Z,65.3
2022-09-01T04:09:51.758Z,65.4
2022-09-01T04:11:07.873Z,65.3
2022-09-01T04:12:24.057Z,65.3
2022-09-01T04:13:40.330Z,65.3
2022-09-01T04:14:56.514Z,65.4
2022-09-01T04:16:12.714Z,65.4
2022-09-01T04:17:28.910Z,65.4
2022-09-01T04:18:44.110Z,65.5
2022-09-01T04:20:00.288Z,65.4
2022-09-01T04:21:16.384Z,65.4
2022-09-01T04:22:32.592Z,65.4
2022-09-01T04:23:48.778Z,65.4
2022-09-01T04:25:05.044Z,65.4
2022-09-01T04:26:21.142Z,65.4
2022-09-01T04:27:37.437Z,65.4
2022-09-01T04:28:53.533Z,65.3
2022-09-01T04:30:09.807Z,65.4
2022-09-01T04:31:26.002Z,65.4
2022-09-01T04:32:42.194Z,65.4
2022-09-01T04:33:58.285Z,65.4
2022-09-01T04:35:13.490Z,65.4
2022-09-01T04:36:29.769Z,65.4
2022-09-01T04:37:45.966Z,65.4
2022-09-01T04:39:02.056Z,65.4
2022-09-01T04:40:18.346Z,65.4
2022-09-01T04:41:34.535Z,65.4
2022-09-01T04:42:50.722Z,65.5
2022-09-01T04:45:23.097Z,65.6
2022-09-01T04:46:39.279Z,65.6
2022-09-01T04:47:55.467Z,65.6
2022-09-01T04:49:11.658Z,65.6
2022-09-01T04:50:27.748Z,65.6
2022-09-01T04:51:43.055Z,65.7
2022-09-01T04:52:59.253Z,65.6
2022-09-01T04:54:15.441Z,65.6
2022-09-01T04:55:31.629Z,65.6
2022-09-01T04:56:47.000Z,65.6
2022-09-01T04:58:03.998Z,65.6
2022-09-01T04:59:20.100Z,65.6
2022-09-01T05:00:36.286Z,65.6
2022-09-01T05:01:52.561Z,65.6
2022-09-01T05:03:08.756Z,65.6
2022-09-01T05:04:24.852Z,65.6
2022-09-01T05:05:41.028Z,65.5
2022-09-01T05:06:57.232Z,65.5
2022-09-01T05:08:12.536Z,65.5
2022-09-01T05:09:28.724Z,65.5
2022-09-01T05:10:44.803Z,65.4
2022-09-01T05:12:00.996Z,65.4
2022-09-01T05:13:17.278Z,65.4
2022-09-01T05:14:33.369Z,65.4
2022-09-01T05:15:49.668Z,65.4
2022-09-01T05:17:05.860Z,65.5
2022-09-01T05:18:22.037Z,65.4
2022-09-01T05:19:38.131Z,65.4
2022-09-01T05:20:54.412Z,65.4
2022-09-01T05:22:10.502Z,65.4
2022-09-01T05:23:26.795Z,65.4
2022-09-01T05:24:42.001Z,65.4
2022-09-01T05:25:58.196Z,65.4
2022-09-01T05:27:14.290Z,65.4
2022-09-01T05:28:30.476Z,65.4
2022-09-01T05:29:46.666Z,65.3
2022-09-01T05:31:02.958Z,65.3
2022-09-01T05:32:19.028Z,65.3
2022-09-01T05:33:35.322Z,65.3
2022-09-01T05:34:51.404Z,65.4
2022-09-01T05:36:07.710Z,65.4
2022-09-01T05:37:23.780Z,65.3
2022-09-01T05:38:40.094Z,65.3
2022-09-01T05:39:56.278Z,65.3
2022-09-01T05:41:11.370Z,65.3
2022-09-01T05:42:27.557Z,65.3
2022-09-01T05:43:43.867Z,65.3
2022-09-01T05:44:59.933Z,65.4
2022-09-01T05:46:16.122Z,65.3
2022-09-01T05:47:32.325Z,65.3
2022-09-01T05:48:47.627Z,65.3
2022-09-01T05:50:03.715Z,65.3
2022-09-01T05:51:20.006Z,65.3
2022-09-01T05:52:36.157Z,65.3
2022-09-01T05:53:52.351Z,65.3
2022-09-01T05:55:08.575Z,65.2
2022-09-01T05:56:24.775Z,65.2
2022-09-01T05:57:40.903Z,65.2
2022-09-01T05:58:57.157Z,65.2
2022-09-01T06:00:13.293Z,65.2
2022-09-01T06:01:29.519Z,65.2
2022-09-01T06:02:45.718Z,65.1
2022-09-01T06:04:01.905Z,65.1
2022-09-01T06:05:17.052Z,65.1
2022-09-01T06:06:33.256Z,65.1
2022-09-01T06:07:49.489Z,65.1
2022-09-01T06:09:05.681Z,65.1
2022-09-01T06:10:21.873Z,65.1
2022-09-01T06:11:38.052Z,65.1
2022-09-01T06:12:54.205Z,65
2022-09-01T06:14:10.435Z,65
2022-09-01T06:15:26.628Z,64.9
2022-09-01T06:16:42.803Z,65
2022-09-01T06:17:58.995Z,65
2022-09-01T06:19:15.134Z,65
2022-09-01T06:20:31.329Z,64.9
2022-09-01T06:21:46.588Z,64.9
2022-09-01T06:23:02.732Z,64.9
2022-09-01T06:24:18.957Z,64.9
2022-09-01T06:25:35.154Z,64.9
2022-09-01T06:26:51.333Z,64.9
2022-09-01T06:28:07.528Z,64.9
2022-09-01T06:29:23.711Z,64.9
2022-09-01T06:30:39.838Z,64.9
2022-09-01T06:31:56.026Z,64.9
2022-09-01T06:33:12.285Z,64.9
2022-09-01T06:34:28.456Z,64.9
2022-09-01T06:35:44.645Z,64.8
2022-09-01T06:37:00.835Z,64.9
2022-09-01T06:38:16.036Z,64.8
2022-09-01T06:39:32.222Z,64.8
2022-09-01T06:40:48.361Z,64.8
2022-09-01T06:42:04.595Z,64.8
2022-09-01T06:43:20.796Z,64.8
2022-09-01T06:44:36.922Z,64.8
2022-09-01T06:45:53.165Z,64.7
2022-09-01T06:47:09.352Z,64.7
2022-09-01T06:48:25.542Z,64.7
2022-09-01T06:49:41.719Z,64.7
2022-09-01T06:50:57.918Z,64.7
2022-09-01T06:52:14.098Z,64.6
2022-09-01T06:53:30.292Z,64.7
2022-09-01T06:54:45.431Z,64.7
2022-09-01T06:56:01.618Z,64.8
2022-09-01T06:57:17.865Z,64.9
2022-09-01T06:58:34.001Z,64.8
2022-09-01T06:59:50.245Z,64.8
2022-09-01T07:01:06.364Z,64.8
2022-09-01T07:02:22.625Z,64.8
2022-09-01T07:03:38.808Z,64.7
2022-09-01T07:04:54.989Z,64.6
2022-09-01T07:06:11.111Z,64.6
2022-09-01T07:07:27.366Z,64.6
2022-09-01T07:08:43.496Z,64.5
2022-09-01T07:09:59.670Z,64.5
2022-09-01T07:11:14.945Z,64.5
2022-09-01T07:12:31.124Z,64.5
2022-09-01T07:13:47.252Z,64.4
2022-09-01T07:15:03.517Z,64.5
2022-09-01T07:16:19.625Z,64.4
2022-09-01T07:17:35.814Z,64.4
2022-09-01T07:18:52.000Z,64.4
2022-09-01T07:20:08.255Z,64.4
2022-09-01T07:21:24.390Z,64.4
2022-09-01T07:22:40.639Z,64.3
2022-09-01T07:23:56.752Z,64.4
2022-09-01T07:25:13.004Z,64.4
2022-09-01T07:26:29.194Z,64.3
2022-09-01T07:27:44.401Z,64.3
2022-09-01T07:29:00.522Z,64.3
2022-09-01T07:30:16.771Z,64.3
2022-09-01T07:31:32.962Z,64.3
2022-09-01T07:32:49.091Z,64.3
2022-09-01T07:34:05.326Z,64.3
2022-09-01T07:35:21.449Z,64.4
2022-09-01T07:36:37.637Z,64.4
2022-09-01T07:37:53.896Z,64.4
2022-09-01T07:39:10.005Z,64.4
2022-09-01T07:40:26.266Z,64.4
2022-09-01T07:41:42.388Z,64.4
2022-09-01T07:42:58.650Z,64.3
2022-09-01T07:44:13.839Z,64.3
2022-09-01T07:45:30.036Z,64.2
2022-09-01T07:46:46.147Z,64.2
2022-09-01T07:48:02.419Z,64.2
2022-09-01T07:49:18.599Z,64.4
2022-09-01T07:50:34.779Z,64.5
2022-09-01T07:51:50.913Z,64.4
2022-09-01T07:53:07.162Z,64.4
2022-09-01T07:54:23.285Z,64.3
2022-09-01T07:55:39.543Z,64.3
2022-09-01T07:56:55.723Z,64.3
2022-09-01T07:58:11.916Z,64.2
2022-09-01T07:59:28.033Z,64.2
2022-09-01T08:00:43.221Z,64.1
2022-09-01T08:01:59.405Z,64.1
2022-09-01T08:03:15.679Z,64
2022-09-01T08:04:31.854Z,64
2022-09-01T08:05:48.056Z,63.9
2022-09-01T08:07:04.159Z,63.9
2022-09-01T08:08:20.421Z,63.9
2022-09-01T08:09:36.533Z,63.9
2022-09-01T08:10:52.807Z,63.9
2022-09-01T08:12:08.977Z,63.9
2022-09-01T08:13:25.174Z,63.9
2022-09-01T08:14:41.290Z,63.9
2022-09-01T08:15:57.472Z,63.8
2022-09-01T08:17:12.759Z,63.9
2022-09-01T08:18:28.937Z,63.9
2022-09-01T08:19:45.130Z,63.9
2022-09-01T08:21:01.314Z,63.9
2022-09-01T08:22:17.415Z,63.9
2022-09-01T08:23:33.693Z,63.9
2022-09-01T08:24:49.878Z,63.9
2022-09-01T08:26:06.061Z,63.9
2022-09-01T08:27:22.245Z,63.9
2022-09-01T08:28:38.370Z,63.8
2022-09-01T08:29:54.541Z,63.8
2022-09-01T08:31:10.817Z,63.9
2022-09-01T08:32:26.992Z,63.9
2022-09-01T08:33:42.205Z,63.8
2022-09-01T08:34:58.315Z,63.8
2022-09-01T08:36:14.569Z,63.7
2022-09-01T08:37:30.696Z,63.7
2022-09-01T08:38:46.868Z,63.8
2022-09-01T08:40:03.057Z,63.7
2022-09-01T08:41:19.319Z,63.6
2022-09-01T08:42:35.507Z,63.6
2022-09-01T08:43:51.712Z,63.6
2022-09-01T08:45:07.893Z,63.5
2022-09-01T08:46:24.077Z,63.5
2022-09-01T08:47:40.176Z,63.5
2022-09-01T08:48:56.377Z,63.5
2022-09-01T08:50:11.659Z,63.5
2022-09-01T08:51:27.845Z,63.4
2022-09-01T08:52:43.958Z,63.4
2022-09-01T08:54:00.225Z,63.4
2022-09-01T08:55:16.322Z,63.4
2022-09-01T08:56:32.592Z,63.4
2022-09-01T08:57:48.706Z,63.4
2022-09-01T08:59:04.875Z,63.4
2022-09-01T09:00:21.079Z,63.3
2022-09-01T09:01:37.343Z,63.2
2022-09-01T09:02:53.455Z,63.2
2022-09-01T09:04:09.639Z,63.2
2022-09-01T09:05:25.900Z,63.2
2022-09-01T09:06:41.018Z,63.2
2022-09-01T09:07:57.214Z,63.2
2022-09-01T09:09:13.484Z,63.3
2022-09-01T09:10:29.594Z,63.2
2022-09-01T09:11:45.850Z,63.2
2022-09-01T09:13:01.961Z,63.3
2022-09-01T09:14:18.226Z,63.3
2022-09-01T09:15:34.337Z,63.2
2022-09-01T09:16:50.526Z,63.2
2022-09-01T09:18:06.799Z,63.2
2022-09-01T09:19:22.983Z,63.2
2022-09-01T09:20:39.172Z,63
2022-09-01T09:21:55.353Z,62.9
2022-09-01T09:23:10.569Z,62.8
2022-09-01T09:24:26.745Z,62.7
2022-09-01T09:25:42.843Z,62.6
2022-09-01T09:26:59.120Z,62.5
2022-09-01T09:28:15.216Z,62.5
2022-09-01T09:29:31.416Z,62.4
2022-09-01T09:30:47.601Z,62.3
2022-09-01T09:32:03.878Z,62.3
2022-09-01T09:33:20.055Z,62.4
2022-09-01T09:34:36.254Z,62.4
2022-09-01T09:35:52.339Z,62.5
2022-09-01T09:37:08.633Z,62.4
2022-09-01T09:38:24.726Z,62.3
2022-09-01T09:39:40.003Z,62.2
2022-09-01T09:40:56.117Z,62
2022-09-01T09:42:12.288Z,62
2022-09-01T09:43:28.571Z,62
2022-09-01T09:44:44.769Z,62
2022-09-01T09:46:00.848Z,62
2022-09-01T09:47:17.138Z,61.9
2022-09-01T09:48:33.320Z,61.8
2022-09-01T09:49:49.512Z,61.8
2022-09-01T09:51:05.597Z,61.6
2022-09-01T09:52:21.891Z,61.5
2022-09-01T09:53:38.083Z,61.5
2022-09-01T09:54:54.263Z,61.7
2022-09-01T09:56:09.364Z,61.7
2022-09-01T09:57:25.646Z,61.7
2022-09-01T09:58:41.848Z,61.5
2022-09-01T09:59:58.026Z,61.4
2022-09-01T10:01:14.114Z,61.3
2022-09-01T10:02:30.394Z,61.1
2022-09-01T10:03:45.509Z,61.1
2022-09-01T10:05:01.799Z,61.4
2022-09-01T10:06:17.991Z,61.4
2022-09-01T10:07:34.071Z,61.5
2022-09-01T10:08:50.253Z,61.3
2022-09-01T10:10:06.537Z,61.5
2022-09-01T10:11:22.631Z,61.5
2022-09-01T10:12:38.914Z,61.1
2022-09-01T10:13:55.104Z,61.1
2022-09-01T10:15:11.292Z,61
2022-09-01T10:16:27.395Z,61
2022-09-01T10:17:43.672Z,60.8
2022-09-01T10:18:59.764Z,60.7
2022-09-01T10:20:14.955Z,61
2022-09-01T10:21:31.148Z,60.6
2022-09-01T10:22:47.433Z,60.7
2022-09-01T10:24:03.621Z,61
2022-09-01T10:25:19.811Z,61
2022-09-01T10:26:35.905Z,61
2022-09-01T10:27:52.088Z,60.9
2022-09-01T10:29:08.370Z,61
2022-09-01T10:30:24.564Z,61
2022-09-01T10:31:40.651Z,60.8
2022-09-01T10:32:56.925Z,60.8
2022-09-01T10:34:13.028Z,60.9
2022-09-01T10:35:29.301Z,60.8
2022-09-01T10:36:44.511Z,60.5
2022-09-01T10:38:00.694Z,60.4
2022-09-01T10:39:16.898Z,60.6
2022-09-01T10:40:33.074Z,60.7
2022-09-01T10:41:49.264Z,60.7
2022-09-01T10:43:05.336Z,60.7
2022-09-01T10:44:21.631Z,60.7
2022-09-01T10:45:37.833Z,60.7
2022-09-01T10:46:53.898Z,60.8
2022-09-01T10:48:10.192Z,60.8
2022-09-01T10:49:26.390Z,60.9
2022-09-01T10:50:42.580Z,60.9
2022-09-01T10:51:58.771Z,60.9
2022-09-01T10:53:13.969Z,60.9
2022-09-01T10:54:30.159Z,61
2022-09-01T10:55:46.337Z,61
2022-09-01T10:57:02.423Z,61
2022-09-01T10:58:18.712Z,61
2022-09-01T10:59:34.903Z,61
2022-09-01T11:00:51.093Z,60.8
2022-09-01T11:02:07.159Z,60.8
2022-09-01T11:03:23.467Z,60.9
2022-09-01T11:04:39.548Z,60.8
2022-09-01T11:05:55.734Z,60.8
2022-09-01T11:07:12.020Z,60.7
2022-09-01T11:08:28.208Z,60.8
2022-09-01T11:09:43.409Z,60.7
2022-09-01T11:10:59.610Z,60.7
2022-09-01T11:13:31.973Z,60.7
2022-09-01T11:14:48.174Z,60.7
2022-09-01T11:16:04.249Z,60.7
2022-09-01T11:17:20.434Z,60.2
2022-09-01T11:18:36.622Z,59.1
2022-09-01T11:19:52.802Z,59
2022-09-01T11:21:09.098Z,59.4
2022-09-01T11:22:25.283Z,59.6
2022-09-01T11:23:41.372Z,59.9
2022-09-01T11:24:57.558Z,60
2022-09-01T11:26:12.749Z,60.2
2022-09-01T11:27:28.939Z,60.3
2022-09-01T11:28:45.241Z,60.4
2022-09-01T11:30:01.420Z,60.4
2022-09-01T11:31:17.611Z,60.5
2022-09-01T11:32:33.696Z,60.5
2022-09-01T11:33:49.998Z,60.5
2022-09-01T11:35:06.065Z,60.4
2022-09-01T11:36:22.361Z,60.3
2022-09-01T11:37:38.553Z,60.2
2022-09-01T11:38:54.748Z,59.9
2022-09-01T11:40:10.816Z,59.7
2022-09-01T11:41:27.114Z,59.6
2022-09-01T11:42:42.197Z,59.3
2022-09-01T11:43:58.511Z,59.1
2022-09-01T11:45:14.703Z,59
2022-09-01T11:46:30.875Z,59
2022-09-01T11:47:46.952Z,59.1
2022-09-01T11:49:03.149Z,59.2
2022-09-01T11:50:19.000Z,59.3
2022-09-01T11:51:35.629Z,59.4
2022-09-01T11:52:51.823Z,59.5
2022-09-01T11:54:08.014Z,59.5
2022-09-01T11:55:24.079Z,59.6
2022-09-01T11:56:40.373Z,59.5
2022-09-01T11:57:56.564Z,59.5
2022-09-01T11:59:11.769Z,59.4
2022-09-01T12:00:27.959Z,59.4
2022-09-01T12:01:44.142Z,59.4
2022-09-01T12:03:00.328Z,59.3
2022-09-01T12:04:16.521Z,59.3
2022-09-01T12:05:32.597Z,59.3
2022-09-01T12:06:48.900Z,59.3
2022-09-01T12:08:05.079Z,59.3
2022-09-01T12:09:21.262Z,59.4
2022-09-01T12:10:37.451Z,59.4
2022-09-01T12:11:53.643Z,59.4
2022-09-01T12:13:09.832Z,59.4
2022-09-01T12:14:25.889Z,59.2
2022-09-01T12:15:41.231Z,59
2022-09-01T12:16:57.402Z,58.9
2022-09-01T12:18:13.483Z,58.9
2022-09-01T12:19:29.776Z,58.9
2022-09-01T12:20:45.978Z,58.8
2022-09-01T12:22:02.038Z,58.8
2022-09-01T12:23:18.351Z,58.5
2022-09-01T12:24:34.526Z,57.5
2022-09-01T12:25:50.606Z,57
2022-09-01T12:27:06.796Z,57.5
2022-09-01T12:28:22.980Z,57.9
2022-09-01T12:29:39.283Z,58.2
2022-09-01T12:30:55.461Z,58.5
2022-09-01T12:32:10.678Z,58.7
2022-09-01T12:33:26.728Z,58.8
2022-09-01T12:34:43.053Z,59
2022-09-01T12:35:59.226Z,59.1
2022-09-01T12:37:15.418Z,59.1
2022-09-01T12:38:31.617Z,59.2
2022-09-01T12:39:47.662Z,59.2
2022-09-01T12:41:03.859Z,59.2
2022-09-01T12:42:20.166Z,59.2
2022-09-01T12:43:36.360Z,59.2
2022-09-01T12:44:52.545Z,59.2
2022-09-01T12:46:08.726Z,59.2
2022-09-01T12:47:24.920Z,59.3
2022-09-01T12:48:40.006Z,59.3
2022-09-01T12:49:56.192Z,59.3
2022-09-01T12:51:12.508Z,59.4
2022-09-01T12:52:28.562Z,59.4
2022-09-01T12:53:44.876Z,59.5
2022-09-01T12:55:01.065Z,59.5
2022-09-01T12:56:17.114Z,59.5
2022-09-01T12:57:33.438Z,59.5
2022-09-01T12:58:49.628Z,59.5
2022-09-01T13:00:05.816Z,59.5
2022-09-01T13:01:22.003Z,59.5
2022-09-01T13:02:38.178Z,59.5
2022-09-01T13:03:54.241Z,59.4
2022-09-01T13:05:09.453Z,59.3
2022-09-01T13:06:25.634Z,59.2
2022-09-01T13:07:41.953Z,59
2022-09-01T13:08:58.144Z,58.9
2022-09-01T13:10:14.325Z,58.7
2022-09-01T13:11:30.515Z,58.4
2022-09-01T13:12:46.691Z,58.2
2022-09-01T13:14:02.756Z,57.8
2022-09-01T13:15:19.072Z,57.4
2022-09-01T13:16:35.127Z,57
2022-09-01T13:17:51.314Z,56.6
2022-09-01T13:19:07.494Z,55.6
2022-09-01T13:20:23.826Z,55.7
2022-09-01T13:21:38.890Z,53
2022-09-01T13:22:55.225Z,52.2
2022-09-01T13:24:11.270Z,52.2
2022-09-01T13:25:27.589Z,52.2
2022-09-01T13:26:43.650Z,53.1
2022-09-01T13:27:59.962Z,54
2022-09-01T13:29:16.147Z,54.7
2022-09-01T13:30:32.340Z,55.2
2022-09-01T13:31:48.530Z,55.7
2022-09-01T13:33:04.724Z,56
2022-09-01T13:34:20.901Z,56.2
2022-09-01T13:35:37.098Z,55.9
2022-09-01T13:36:53.135Z,56.1
2022-09-01T13:38:08.486Z,56.2
2022-09-01T13:39:24.531Z,56.3
2022-09-01T13:40:40.721Z,55.6
2022-09-01T13:41:56.895Z,55.4
2022-09-01T13:43:13.090Z,55.4
2022-09-01T13:44:29.414Z,55.3
2022-09-01T13:45:45.456Z,54.8
2022-09-01T13:47:01.784Z,54.9
2022-09-01T13:48:17.986Z,55.1
2022-09-01T13:49:34.036Z,55.2
2022-09-01T13:50:50.346Z,55.5
2022-09-01T13:52:06.544Z,55.7
2022-09-01T13:53:22.721Z,55.7
2022-09-01T13:54:37.923Z,55.1
2022-09-01T13:55:53.981Z,55
2022-09-01T13:57:10.166Z,55.2
2022-09-01T13:58:26.495Z,55.4
2022-09-01T13:59:42.537Z,55.7
2022-09-01T14:00:58.719Z,55.9
2022-09-01T14:02:15.054Z,56
2022-09-01T14:03:31.235Z,56.1
2022-09-01T14:04:47.440Z,56.1
2022-09-01T14:06:03.472Z,56.3
2022-09-01T14:07:19.662Z,56.3
2022-09-01T14:08:35.858Z,56.3
2022-09-01T14:09:52.186Z,56.4
2022-09-01T14:11:07.393Z,56.3
2022-09-01T14:12:23.427Z,56.4
2022-09-01T14:13:39.758Z,56.3
2022-09-01T14:14:55.803Z,56.4
2022-09-01T14:16:12.141Z,56.3
2022-09-01T14:17:28.175Z,55.3
2022-09-01T14:18:43.376Z,55.4
2022-09-01T14:19:59.579Z,55.8
2022-09-01T14:21:15.765Z,55.9
2022-09-01T14:22:32.093Z,55.9
2022-09-01T14:23:48.283Z,55.5
2022-09-01T14:25:04.331Z,54.9
2022-09-01T14:26:20.649Z,55.1
2022-09-01T14:27:36.845Z,54.9
2022-09-01T14:28:53.027Z,53.9
2022-09-01T14:30:09.069Z,53.8
2022-09-01T14:31:25.404Z,54.1
2022-09-01T14:32:41.593Z,54.6
2022-09-01T14:33:57.626Z,54.9
2022-09-01T14:35:12.831Z,55.1
2022-09-01T14:36:29.168Z,55.2
2022-09-01T14:37:45.365Z,55.5
2022-09-01T14:39:01.542Z,55.6
2022-09-01T14:40:17.723Z,55.8
2022-09-01T14:41:33.780Z,56
2022-09-01T14:42:50.114Z,56.1
2022-09-01T14:44:06.296Z,56.4
2022-09-01T14:45:22.332Z,56.5
2022-09-01T14:46:38.524Z,56.7
2022-09-01T14:47:54.852Z,56.8
2022-09-01T14:49:11.046Z,56.9
2022-09-01T14:50:27.070Z,56.9
2022-09-01T14:51:42.432Z,57
2022-09-01T14:52:58.626Z,57.1
2022-09-01T14:54:14.662Z,57.1
2022-09-01T14:55:31.002Z,57.2
2022-09-01T14:56:47.188Z,57.2
2022-09-01T14:58:03.208Z,57.3
2022-09-01T14:59:19.550Z,57.3
2022-09-01T15:00:35.599Z,57.4
2022-09-01T15:01:51.927Z,57.3
2022-09-01T15:03:08.118Z,57.2
2022-09-01T15:04:24.301Z,57.2
2022-09-01T15:05:40.487Z,57.1
2022-09-01T15:06:56.519Z,57.1
2022-09-01T15:08:11.876Z,57
2022-09-01T15:09:28.068Z,56.9
2022-09-01T15:10:44.255Z,56.9
2022-09-01T15:12:00.286Z,56.9
2022-09-01T15:13:16.474Z,57
2022-09-01T15:14:32.817Z,57.1
2022-09-01T15:15:49.009Z,57.1
2022-09-01T15:17:05.194Z,57.2
2022-09-01T15:18:21.385Z,57.2
2022-09-01T15:19:37.410Z,57.3
2022-09-01T15:20:53.753Z,57.3
2022-09-01T15:22:09.937Z,57.4
2022-09-01T15:23:25.986Z,57.4
2022-09-01T15:24:41.190Z,57.4
2022-09-01T15:25:57.363Z,57.5
2022-09-01T15:27:13.554Z,57.5
2022-09-01T15:28:29.745Z,57.5
2022-09-01T15:29:46.082Z,57.6
2022-09-01T15:31:02.121Z,57.6
2022-09-01T15:32:18.459Z,57.6
2022-09-01T15:33:34.655Z,57.6
2022-09-01T15:34:50.844Z,57.7
2022-09-01T15:36:07.021Z,57.7
2022-09-01T15:37:23.205Z,57.8
2022-09-01T15:38:39.236Z,57.8
2022-09-01T15:39:55.588Z,57.9
2022-09-01T15:41:10.784Z,57.9
2022-09-01T15:42:26.977Z,58
2022-09-01T15:43:43.003Z,57.9
2022-09-01T15:44:59.182Z,57.9
2022-09-01T15:46:15.546Z,58
2022-09-01T15:47:31.720Z,57.9
2022-09-01T15:48:47.748Z,57.9
2022-09-01T15:50:03.949Z,57.9
2022-09-01T15:51:20.135Z,57.9
2022-09-01T15:52:36.478Z,57.8
2022-09-01T15:53:52.496Z,58
2022-09-01T15:55:08.695Z,58.1
2022-09-01T15:56:25.032Z,58
2022-09-01T15:57:40.230Z,58.1
2022-09-01T15:58:56.257Z,58.1
2022-09-01T16:00:12.607Z,58.2
2022-09-01T16:01:28.816Z,58.3
2022-09-01T16:02:44.997Z,58.4
2022-09-01T16:04:01.180Z,58.4
2022-09-01T16:05:17.365Z,58.5
2022-09-01T16:06:33.397Z,58.5
2022-09-01T16:07:49.743Z,58.5
2022-09-01T16:09:05.776Z,58.5
2022-09-01T16:10:22.127Z,58.5
2022-09-01T16:11:38.307Z,58.5
2022-09-01T16:12:54.334Z,58.6
2022-09-01T16:14:09.548Z,58.8
2022-09-01T16:15:25.735Z,58.8
2022-09-01T16:16:41.918Z,58.8
2022-09-01T16:17:58.104Z,58.8
2022-09-01T16:19:14.469Z,58.9
2022-09-01T16:20:30.650Z,58.9
2022-09-01T16:21:46.678Z,59
2022-09-01T16:23:03.026Z,59
2022-09-01T16:24:19.051Z,59
2022-09-01T16:25:35.409Z,59.1
2022-09-01T16:26:51.596Z,59.2
2022-09-01T16:28:07.788Z,59.4
2022-09-01T16:29:23.816Z,59.4
2022-09-01T16:30:39.185Z,59.4
2022-09-01T16:31:55.209Z,59.4
2022-09-01T16:33:11.548Z,59.5
2022-09-01T16:34:27.583Z,59.6
2022-09-01T16:35:43.760Z,59.6
2022-09-01T16:36:59.946Z,59.7
2022-09-01T16:38:16.318Z,59.6
2022-09-01T16:39:32.340Z,59.7
2022-09-01T16:40:48.515Z,59.8
2022-09-01T16:42:04.877Z,60
2022-09-01T16:43:21.071Z,59.9
2022-09-01T16:44:37.081Z,60
2022-09-01T16:45:53.439Z,60.2
2022-09-01T16:47:08.491Z,60.4
2022-09-01T16:48:24.851Z,60.8
2022-09-01T16:49:40.854Z,60.7
2022-09-01T16:50:57.210Z,60.7
2022-09-01T16:52:13.412Z,60.9
2022-09-01T16:53:29.425Z,60.9
2022-09-01T16:54:45.625Z,61.1
2022-09-01T16:56:01.973Z,61.2
2022-09-01T16:57:18.157Z,61.3
2022-09-01T16:58:34.356Z,61.3
2022-09-01T16:59:50.369Z,61.4
2022-09-01T17:01:06.739Z,61.4
2022-09-01T17:02:22.745Z,61.6